createdAt,value
2018-06-02T00:01:36.535Z,86.63
2018-06-02T00:04:05.568Z,94.60
2018-06-02T00:06:33.831Z,95.23
2018-06-02T00:09:02.899Z,86.27
2018-06-02T00:11:31.175Z,93.33
2018-06-02T00:13:59.454Z,91.80
2018-06-02T00:16:27.723Z,90.50
2018-06-02T00:18:55.989Z,94.83
2018-06-02T00:21:24.279Z,94.97
2018-06-02T00:23:52.558Z,95.67
2018-06-02T00:26:20.839Z,81.93
2018-06-02T00:28:49.115Z,79.63
2018-06-02T00:31:17.449Z,64.67
2018-06-02T00:33:46.491Z,57.57
2018-06-02T00:36:14.771Z,60.10
2018-06-02T00:38:43.059Z,55.37
2018-06-02T00:41:11.449Z,51.60
2018-06-02T00:43:39.703Z,54.17
2018-06-02T00:46:08.006Z,53.13
2018-06-02T00:48:37.043Z,40.13
2018-06-02T00:51:05.348Z,44.13
2018-06-02T00:53:33.648Z,36.95
2018-06-02T00:56:01.930Z,36.03
2018-06-02T00:58:30.241Z,35.60
2018-06-02T01:00:58.528Z,34.40
2018-06-02T01:03:27.283Z,34.43
2018-06-02T01:05:55.581Z,28.10
2018-06-02T01:08:24.620Z,28.70
2018-06-02T01:10:52.925Z,30.97
2018-06-02T01:13:21.275Z,30.40
2018-06-02T01:15:49.655Z,26.90
2018-06-02T01:18:18.676Z,28.93
2018-06-02T01:20:46.978Z,29.67
2018-06-02T01:23:16.026Z,26.80
2018-06-02T01:25:44.297Z,26.17
2018-06-02T01:31:09.769Z,28.23
2018-06-02T01:33:38.079Z,33.00
2018-06-02T01:36:06.404Z,35.40
2018-06-02T01:38:35.463Z,30.83
2018-06-02T01:41:03.714Z,28.87
2018-06-02T01:43:33.253Z,34.40
2018-06-02T01:46:01.510Z,27.63
2018-06-02T01:48:29.773Z,35.03
2018-06-02T01:50:58.053Z,39.13
2018-06-02T01:53:26.351Z,36.17
2018-06-02T01:55:56.121Z,39.57
2018-06-02T01:58:24.396Z,39.10
2018-06-02T02:00:52.728Z,35.70
2018-06-02T02:03:21.807Z,39.27
2018-06-02T02:05:50.105Z,40.10
2018-06-02T02:08:18.408Z,38.47
2018-06-02T02:10:46.690Z,40.55
2018-06-02T02:13:14.944Z,40.57
2018-06-02T02:15:43.979Z,43.83
2018-06-02T02:18:12.249Z,48.63
2018-06-02T02:20:41.322Z,45.13
2018-06-02T02:23:09.685Z,49.40
2018-06-02T02:25:37.977Z,48.87
2018-06-02T02:28:06.258Z,47.90
2018-06-02T02:30:34.527Z,45.03
2018-06-02T02:33:02.845Z,48.33
2018-06-02T02:35:31.122Z,49.97
2018-06-02T02:37:59.422Z,49.33
2018-06-02T02:40:27.895Z,46.13
2018-06-02T02:42:56.155Z,55.20
2018-06-02T02:45:25.206Z,51.27
2018-06-02T02:47:53.483Z,53.10
2018-06-02T02:50:21.766Z,53.47
2018-06-02T02:52:50.097Z,56.23
2018-06-02T02:55:18.433Z,56.47
2018-06-02T02:57:47.496Z,55.47
2018-06-02T03:00:15.796Z,55.20
2018-06-02T03:02:44.066Z,57.63
2018-06-02T03:05:12.324Z,60.88
2018-06-02T03:07:41.374Z,62.37
2018-06-02T03:10:09.662Z,62.20
2018-06-02T03:12:37.941Z,51.47
2018-06-02T03:15:06.312Z,63.20
2018-06-02T03:17:34.571Z,58.67
2018-06-02T03:20:03.657Z,59.67
2018-06-02T03:22:31.919Z,59.50
2018-06-02T03:25:00.309Z,63.30
2018-06-02T03:27:28.609Z,60.77
2018-06-02T03:29:56.909Z,60.43
2018-06-02T03:32:25.167Z,64.20
2018-06-02T03:34:53.481Z,59.73
2018-06-02T03:37:21.783Z,72.33
2018-06-02T03:39:50.080Z,67.93
2018-06-02T03:42:18.373Z,69.87
2018-06-02T03:44:46.737Z,70.23
2018-06-02T03:47:14.992Z,69.53
2018-06-02T03:49:44.011Z,74.13
2018-06-02T03:52:12.331Z,71.03
2018-06-02T03:54:40.605Z,74.73
2018-06-02T03:57:08.854Z,72.70
2018-06-02T03:59:37.151Z,72.73
2018-06-02T04:02:05.432Z,75.47
2018-06-02T04:04:33.714Z,66.60
2018-06-02T04:07:02.025Z,67.03
2018-06-02T04:09:30.271Z,74.17
2018-06-02T04:11:58.562Z,74.47
2018-06-02T04:14:26.842Z,73.47
2018-06-02T04:16:55.136Z,67.67
2018-06-02T04:19:23.426Z,85.17
2018-06-02T04:21:51.703Z,73.37
2018-06-02T04:24:20.085Z,77.30
2018-06-02T04:26:49.200Z,78.53
2018-06-02T04:29:17.523Z,76.78
2018-06-02T04:31:45.803Z,65.13
2018-06-02T04:34:14.108Z,78.23
2018-06-02T04:36:42.393Z,78.00
2018-06-02T04:39:10.761Z,79.57
2018-06-02T04:41:57.767Z,72.33
2018-06-02T04:44:26.865Z,82.63
2018-06-02T04:46:55.140Z,81.40
2018-06-02T04:49:23.428Z,87.90
2018-06-02T04:51:51.715Z,93.93
2018-06-02T04:54:19.998Z,91.77
2018-06-02T04:56:48.377Z,89.67
2018-06-02T04:59:16.638Z,86.87
2018-06-02T05:01:44.893Z,96.50
2018-06-02T05:04:13.965Z,94.20
2018-06-02T05:06:42.433Z,85.70
2018-06-02T05:09:10.704Z,93.97
2018-06-02T05:11:39.744Z,95.17
2018-06-02T05:14:08.029Z,98.97
2018-06-02T05:16:36.311Z,94.03
2018-06-02T05:19:04.602Z,91.67
2018-06-02T05:21:32.887Z,89.63
2018-06-02T05:24:01.169Z,95.37
2018-06-02T05:26:30.210Z,85.77
2018-06-02T05:28:58.586Z,84.85
2018-06-02T05:31:26.849Z,96.63
2018-06-02T05:33:55.879Z,88.30
2018-06-02T05:36:24.179Z,103.20
2018-06-02T05:38:52.483Z,93.43
2018-06-02T05:41:20.767Z,104.23
2018-06-02T05:43:49.107Z,105.97
2018-06-02T05:46:17.718Z,110.23
2018-06-02T05:48:46.778Z,107.13
2018-06-02T05:51:15.083Z,104.40
2018-06-02T05:53:43.369Z,105.33
2018-06-02T05:56:11.714Z,109.83
2018-06-02T05:58:39.994Z,107.00
2018-06-02T06:01:09.042Z,109.00
2018-06-02T06:03:37.336Z,100.33
2018-06-02T06:06:05.599Z,96.90
2018-06-02T06:08:33.881Z,103.60
2018-06-02T06:11:02.189Z,100.30
2018-06-02T06:13:30.467Z,98.97
2018-06-02T06:15:58.753Z,90.37
2018-06-02T06:18:27.087Z,90.57
2018-06-02T06:20:55.427Z,87.40
2018-06-02T06:23:24.551Z,87.47
2018-06-02T06:25:52.984Z,77.47
2018-06-02T06:28:21.339Z,78.07
2018-06-02T06:30:49.639Z,75.20
2018-06-02T06:33:17.968Z,70.50
2018-06-02T06:35:46.258Z,76.53
2018-06-02T06:38:14.521Z,76.40
2018-06-02T06:40:42.795Z,54.17
2018-06-02T06:43:11.075Z,47.23
2018-06-02T06:45:39.343Z,37.03
2018-06-02T06:48:07.652Z,38.37
2018-06-02T06:50:36.696Z,32.93
2018-06-02T06:53:04.939Z,35.78
2018-06-02T06:55:33.983Z,32.70
2018-06-02T06:58:02.254Z,29.30
2018-06-02T07:00:30.524Z,26.50
2018-06-02T07:02:59.695Z,24.57
2018-06-02T07:05:28.272Z,24.57
2018-06-02T07:07:56.527Z,24.80
2018-06-02T07:10:24.796Z,27.17
2018-06-02T07:12:53.211Z,25.13
2018-06-02T07:15:22.269Z,22.83
2018-06-02T07:17:50.709Z,22.70
2018-06-02T07:20:19.036Z,22.57
2018-06-02T07:22:47.354Z,19.37
2018-06-02T07:25:15.719Z,21.00
2018-06-02T07:27:44.002Z,20.57
2018-06-02T07:30:12.282Z,20.27
2018-06-02T07:32:40.664Z,19.03
2018-06-02T07:35:08.967Z,16.83
2018-06-02T07:37:37.234Z,16.43
2018-06-02T07:40:06.363Z,18.87
2018-06-02T07:42:34.630Z,17.33
2018-06-02T07:45:03.662Z,14.87
2018-06-02T07:47:31.952Z,14.67
2018-06-02T07:50:00.308Z,13.62
2018-06-02T07:52:28.572Z,15.33
2018-06-02T07:54:56.921Z,13.70
2018-06-02T07:57:25.937Z,14.80
2018-06-02T07:59:54.199Z,16.37
2018-06-02T08:02:23.343Z,12.87
2018-06-02T08:04:51.632Z,12.70
2018-06-02T08:07:20.250Z,13.10
2018-06-02T08:09:48.596Z,14.60
2018-06-02T08:12:16.959Z,15.53
2018-06-02T08:14:45.233Z,14.93
2018-06-02T08:17:13.580Z,16.87
2018-06-02T08:19:41.882Z,13.83
2018-06-02T08:22:10.142Z,16.33
2018-06-02T08:24:39.192Z,15.13
2018-06-02T08:27:07.451Z,15.90
2018-06-02T08:29:38.734Z,14.10
2018-06-02T08:32:06.995Z,13.70
2018-06-02T08:34:35.260Z,13.77
2018-06-02T08:37:03.542Z,14.70
2018-06-02T08:39:31.834Z,15.17
2018-06-02T08:42:00.088Z,14.50
2018-06-02T08:44:28.374Z,13.20
2018-06-02T08:46:56.646Z,13.33
2018-06-02T08:49:24.919Z,14.43
2018-06-02T08:51:54.019Z,14.50
2018-06-02T08:54:23.213Z,13.70
2018-06-02T08:56:51.539Z,12.23
2018-06-02T08:59:19.831Z,11.37
2018-06-02T09:01:48.180Z,12.03
2018-06-02T09:04:16.447Z,14.27
2018-06-02T09:06:44.717Z,13.47
2018-06-02T09:09:13.016Z,13.37
2018-06-02T09:11:41.297Z,11.83
2018-06-02T09:14:09.558Z,12.57
2018-06-02T09:16:38.755Z,12.50
2018-06-02T09:19:07.005Z,12.77
2018-06-02T09:21:35.261Z,15.03
2018-06-02T09:24:04.350Z,14.17
2018-06-02T09:26:32.634Z,13.77
2018-06-02T09:29:00.883Z,14.60
2018-06-02T09:31:29.177Z,11.27
2018-06-02T09:33:57.469Z,14.80
2018-06-02T09:36:25.724Z,11.90
2018-06-02T09:38:54.023Z,12.50
2018-06-02T09:41:22.350Z,12.43
2018-06-02T09:43:50.614Z,9.90
2018-06-02T09:46:37.485Z,10.82
2018-06-02T09:49:14.010Z,10.97
2018-06-02T09:51:45.051Z,10.20
2018-06-02T09:54:13.475Z,10.33
2018-06-02T09:56:41.790Z,11.23
2018-06-02T09:59:10.064Z,10.80
2018-06-02T10:01:38.344Z,10.97
2018-06-02T10:04:06.604Z,13.60
2018-06-02T10:06:34.898Z,10.30
2018-06-02T10:09:03.933Z,9.30
2018-06-02T10:11:32.221Z,12.60
2018-06-02T10:14:00.511Z,9.50
2018-06-02T10:16:28.782Z,12.00
2018-06-02T10:18:57.829Z,7.60
2018-06-02T10:21:26.145Z,8.67
2018-06-02T10:23:54.601Z,8.57
2018-06-02T10:26:22.901Z,10.50
2018-06-02T10:28:51.286Z,9.23
2018-06-02T10:31:19.852Z,8.90
2018-06-02T10:33:48.889Z,9.23
2018-06-02T10:36:17.186Z,9.60
2018-06-02T10:38:45.458Z,11.03
2018-06-02T10:41:14.518Z,8.70
2018-06-02T10:43:43.191Z,8.57
2018-06-02T10:46:11.507Z,11.00
2018-06-02T10:48:39.792Z,10.00
2018-06-02T10:51:08.095Z,11.13
2018-06-02T10:53:36.376Z,8.20
2018-06-02T10:56:04.818Z,7.17
2018-06-02T10:58:33.123Z,8.43
2018-06-02T11:01:01.400Z,7.27
2018-06-02T11:03:29.677Z,9.03
2018-06-02T11:05:58.799Z,7.80
2018-06-02T11:08:27.068Z,7.73
2018-06-02T11:10:56.109Z,8.70
2018-06-02T11:13:24.434Z,8.43
2018-06-02T11:15:52.763Z,7.20
2018-06-02T11:18:21.840Z,6.83
2018-06-02T11:20:50.183Z,7.73
2018-06-02T11:23:18.465Z,7.47
2018-06-02T11:25:46.805Z,8.70
2018-06-02T11:28:15.027Z,9.40
2018-06-02T11:30:44.039Z,8.40
2018-06-02T11:33:13.172Z,9.07
2018-06-02T11:35:41.490Z,7.60
2018-06-02T11:38:09.743Z,7.13
2018-06-02T11:40:38.031Z,7.67
2018-06-02T11:43:07.086Z,6.10
2018-06-02T11:45:35.331Z,8.00
2018-06-02T11:48:03.588Z,6.07
2018-06-02T11:50:32.849Z,7.77
2018-06-02T11:53:01.114Z,6.20
2018-06-02T11:55:30.131Z,5.67
2018-06-02T11:57:58.388Z,5.40
2018-06-02T12:00:26.667Z,5.20
2018-06-02T12:02:54.910Z,5.57
2018-06-02T12:05:23.188Z,6.33
2018-06-02T12:07:51.523Z,5.10
2018-06-02T12:10:19.918Z,4.60
2018-06-02T12:12:48.237Z,5.97
2018-06-02T12:15:16.489Z,5.37
2018-06-02T12:17:45.275Z,5.27
2018-06-02T12:20:17.712Z,4.73
2018-06-02T12:22:50.106Z,5.90
2018-06-02T12:25:26.677Z,6.23
2018-06-02T12:28:09.615Z,6.73
2018-06-02T12:30:44.323Z,5.70
2018-06-02T12:33:12.989Z,5.30
2018-06-02T12:35:45.604Z,4.83
2018-06-02T12:38:14.941Z,5.40
2018-06-02T12:40:51.436Z,5.43
2018-06-02T12:43:20.277Z,5.40
2018-06-02T12:45:49.319Z,6.13
2018-06-02T12:48:17.583Z,4.77
2018-06-02T12:50:46.800Z,4.47
2018-06-02T12:53:15.204Z,4.90
2018-06-02T12:55:44.198Z,4.50
2018-06-02T12:58:12.487Z,4.27
2018-06-02T13:00:40.735Z,4.40
2018-06-02T13:03:09.019Z,4.27
2018-06-02T13:05:37.289Z,3.93
2018-06-02T13:08:05.536Z,3.67
2018-06-02T13:10:33.812Z,3.90
2018-06-02T13:13:02.851Z,4.23
2018-06-02T13:15:31.115Z,4.97
2018-06-02T13:18:00.132Z,8.77
2018-06-02T13:20:29.174Z,6.23
2018-06-02T13:22:57.442Z,4.80
2018-06-02T13:25:25.683Z,4.47
2018-06-02T13:27:53.985Z,4.90
2018-06-02T13:30:22.312Z,4.40
2018-06-02T13:32:51.357Z,5.67
2018-06-02T13:35:19.664Z,4.37
2018-06-02T13:37:48.013Z,4.53
2018-06-02T13:40:16.264Z,4.80
2018-06-02T13:42:45.313Z,4.20
2018-06-02T13:45:13.590Z,5.00
2018-06-02T13:47:41.850Z,4.37
2018-06-02T13:50:10.994Z,5.23
2018-06-02T13:52:39.261Z,3.87
2018-06-02T13:55:08.278Z,5.67
2018-06-02T13:57:36.606Z,4.97
2018-06-02T14:00:05.603Z,8.10
2018-06-02T14:02:33.865Z,6.07
2018-06-02T14:05:02.169Z,5.60
2018-06-02T14:07:30.428Z,3.73
2018-06-02T14:09:59.457Z,4.67
2018-06-02T14:12:27.834Z,3.63
2018-06-02T14:14:56.975Z,4.63
2018-06-02T14:17:25.282Z,4.47
2018-06-02T14:19:53.575Z,4.07
2018-06-02T14:22:21.885Z,6.50
2018-06-02T14:24:50.230Z,4.07
2018-06-02T14:27:18.530Z,5.73
2018-06-02T14:29:46.785Z,5.53
2018-06-02T14:32:15.058Z,4.40
2018-06-02T14:34:44.174Z,4.70
2018-06-02T14:37:13.372Z,6.70
2018-06-02T14:39:41.638Z,5.07
2018-06-02T14:42:09.917Z,4.90
2018-06-02T14:44:38.196Z,4.87
2018-06-02T14:47:06.473Z,5.97
2018-06-02T14:49:35.500Z,5.13
2018-06-02T14:52:03.860Z,5.63
2018-06-02T14:54:32.899Z,5.93
2018-06-02T14:57:01.189Z,7.60
2018-06-02T14:59:29.440Z,5.33
2018-06-02T15:01:57.728Z,4.50
2018-06-02T15:04:26.008Z,4.33
2018-06-02T15:06:54.337Z,5.63
2018-06-02T15:09:22.640Z,4.13
2018-06-02T15:11:50.994Z,4.20
2018-06-02T15:14:19.331Z,3.80
2018-06-02T15:16:47.579Z,3.77
2018-06-02T15:19:16.633Z,3.57
2018-06-02T15:21:44.897Z,3.33
2018-06-02T15:24:13.161Z,4.30
2018-06-02T15:26:41.486Z,3.47
2018-06-02T15:29:09.776Z,4.60
2018-06-02T15:31:38.079Z,4.20
2018-06-02T15:34:06.373Z,3.50
2018-06-02T15:36:34.628Z,4.30
2018-06-02T15:39:03.672Z,4.53
2018-06-02T15:41:31.980Z,6.17
2018-06-02T15:44:00.278Z,6.10
2018-06-02T15:46:28.552Z,5.93
2018-06-02T15:48:56.819Z,6.20
2018-06-02T15:51:25.080Z,6.00
2018-06-02T15:53:54.121Z,4.43
2018-06-02T15:56:22.428Z,4.10
2018-06-02T15:58:50.718Z,3.63
2018-06-02T16:01:18.999Z,4.70
2018-06-02T16:03:48.160Z,4.47
2018-06-02T16:06:16.469Z,4.37
2018-06-02T16:08:44.774Z,4.70
2018-06-02T16:11:13.084Z,5.40
2018-06-02T16:13:41.439Z,5.40
2018-06-02T16:16:10.461Z,5.07
2018-06-02T16:18:38.756Z,4.97
2018-06-02T16:21:07.042Z,6.07
2018-06-02T16:23:35.316Z,6.37
2018-06-02T16:26:04.364Z,5.20
2018-06-02T16:28:32.676Z,4.40
2018-06-02T16:31:00.946Z,4.33
2018-06-02T16:33:29.242Z,3.93
2018-06-02T16:35:57.604Z,3.70
2018-06-02T16:38:25.877Z,3.67
2018-06-02T16:40:54.920Z,4.80
2018-06-02T16:43:23.985Z,3.93
2018-06-02T16:45:52.259Z,4.60
2018-06-02T16:48:21.613Z,4.80
2018-06-02T16:50:50.630Z,4.43
2018-06-02T16:53:18.954Z,3.90
2018-06-02T16:55:47.231Z,3.70
2018-06-02T16:58:15.515Z,3.60
2018-06-02T17:00:43.770Z,3.57
2018-06-02T17:03:12.834Z,4.97
2018-06-02T17:05:41.108Z,3.73
2018-06-02T17:08:09.361Z,3.30
2018-06-02T17:10:37.733Z,3.20
2018-06-02T17:13:06.031Z,3.87
2018-06-02T17:15:35.068Z,3.43
2018-06-02T17:18:03.368Z,3.27
2018-06-02T17:20:31.647Z,3.60
2018-06-02T17:22:59.922Z,3.67
2018-06-02T17:25:28.959Z,3.20
2018-06-02T17:27:57.981Z,3.50
2018-06-02T17:30:26.258Z,4.33
2018-06-02T17:32:54.597Z,4.07
2018-06-02T17:35:22.968Z,3.53
2018-06-02T17:37:51.289Z,3.87
2018-06-02T17:40:20.342Z,5.13
2018-06-02T17:42:48.675Z,4.70
2018-06-02T17:45:16.942Z,4.17
2018-06-02T17:47:45.272Z,4.67
2018-06-02T17:50:13.606Z,5.93
2018-06-02T17:52:41.887Z,5.30
2018-06-02T17:55:10.175Z,4.30
2018-06-02T17:57:38.427Z,4.93
2018-06-02T18:00:07.471Z,5.47
2018-06-02T18:02:35.762Z,5.87
2018-06-02T18:05:04.027Z,4.57
2018-06-02T18:07:33.110Z,4.57
2018-06-02T18:10:01.454Z,4.30
2018-06-02T18:12:29.738Z,5.03
2018-06-02T18:14:58.766Z,5.40
2018-06-02T18:17:27.051Z,21.47
2018-06-02T18:19:55.366Z,19.13
2018-06-02T18:22:23.655Z,36.37
2018-06-02T18:24:51.981Z,154.23
2018-06-02T18:27:20.315Z,130.73
2018-06-02T18:29:49.333Z,68.97
2018-06-02T18:32:17.616Z,55.50
2018-06-02T18:34:45.929Z,12.53
2018-06-02T18:37:14.185Z,9.20
2018-06-02T18:39:42.498Z,16.20
2018-06-02T18:42:10.768Z,11.17
2018-06-02T18:44:39.213Z,7.37
2018-06-02T18:47:07.524Z,6.70
2018-06-02T18:49:36.550Z,13.17
2018-06-02T18:52:04.817Z,12.67
2018-06-02T18:54:33.856Z,10.80
2018-06-02T18:57:02.129Z,9.03
2018-06-02T18:59:31.137Z,8.27
2018-06-02T19:02:09.415Z,9.63
2018-06-02T19:04:38.365Z,7.90
2018-06-02T19:07:14.824Z,7.23
2018-06-02T19:09:43.328Z,7.23
2018-06-02T19:12:27.801Z,6.97
2018-06-02T19:15:11.315Z,7.27
2018-06-02T19:17:43.343Z,7.13
2018-06-02T19:20:13.130Z,5.23
2018-06-02T19:22:44.476Z,5.90
2018-06-02T19:25:15.162Z,5.87
2018-06-02T19:27:43.496Z,7.30
2018-06-02T19:30:12.236Z,6.87
2018-06-02T19:32:40.515Z,5.57
2018-06-02T19:35:08.773Z,5.40
2018-06-02T19:37:37.043Z,9.40
2018-06-02T19:40:07.017Z,8.20
2018-06-02T19:42:35.318Z,5.53
2018-06-02T19:45:03.599Z,5.93
2018-06-02T19:47:31.866Z,13.27
2018-06-02T19:50:00.428Z,9.07
2018-06-02T19:52:31.257Z,16.53
2018-06-02T19:55:01.502Z,11.67
2018-06-02T19:57:30.049Z,11.27
2018-06-02T19:59:58.366Z,9.13
2018-06-02T20:02:26.886Z,8.57
2018-06-02T20:04:55.927Z,6.00
2018-06-02T20:07:25.541Z,8.63
2018-06-02T20:09:55.328Z,7.37
2018-06-02T20:12:23.728Z,7.50
2018-06-02T20:14:54.069Z,8.27
2018-06-02T20:17:22.366Z,6.67
2018-06-02T20:19:51.506Z,7.40
2018-06-02T20:22:19.914Z,6.83
2018-06-02T20:24:48.261Z,8.37
2018-06-02T20:27:16.534Z,7.63
2018-06-02T20:29:44.840Z,7.60
2018-06-02T20:32:13.174Z,7.37
2018-06-02T20:34:41.464Z,8.30
2018-06-02T20:37:09.749Z,8.93
2018-06-02T20:39:38.023Z,7.90
2018-06-02T20:42:06.301Z,6.80
2018-06-02T20:44:35.404Z,7.07
2018-06-02T20:47:04.505Z,7.83
2018-06-02T20:49:32.841Z,7.57
2018-06-02T20:52:01.173Z,7.93
2018-06-02T20:54:29.549Z,7.90
2018-06-02T20:56:57.927Z,7.43
2018-06-02T20:59:26.345Z,8.00
2018-06-02T21:01:54.882Z,9.10
2018-06-02T21:04:23.693Z,7.70
2018-06-02T21:06:52.140Z,7.17
2018-06-02T21:09:20.583Z,10.17
2018-06-02T21:11:49.626Z,8.87
2018-06-02T21:14:17.900Z,8.87
2018-06-02T21:16:46.169Z,9.40
2018-06-02T21:19:14.450Z,9.73
2018-06-02T21:21:42.753Z,9.07
2018-06-02T21:24:11.002Z,10.70
2018-06-02T21:26:39.283Z,8.73
2018-06-02T21:29:07.589Z,8.03
2018-06-02T21:31:35.863Z,8.90
2018-06-02T21:34:04.132Z,8.83
2018-06-02T21:36:32.470Z,10.57
2018-06-02T21:39:01.552Z,7.07
2018-06-02T21:41:29.811Z,7.03
2018-06-02T21:43:58.105Z,8.00
2018-06-02T21:46:26.367Z,9.40
2018-06-02T21:48:54.841Z,8.37
2018-06-02T21:51:23.155Z,9.97
2018-06-02T21:53:51.426Z,8.53
2018-06-02T21:56:20.534Z,9.57
2018-06-02T21:58:48.883Z,10.47
2018-06-02T22:01:17.950Z,8.63
2018-06-02T22:03:46.255Z,11.47
2018-06-02T22:06:15.534Z,10.23
2018-06-02T22:08:43.810Z,9.67
2018-06-02T22:11:12.853Z,10.40
2018-06-02T22:13:42.039Z,12.07
2018-06-02T22:16:10.371Z,12.73
2018-06-02T22:18:38.653Z,12.43
2018-06-02T22:21:06.947Z,14.30
2018-06-02T22:23:35.248Z,13.33
2018-06-02T22:26:03.503Z,12.10
2018-06-02T22:28:32.555Z,13.67
2018-06-02T22:31:00.844Z,13.80
2018-06-02T22:33:29.121Z,14.33
2018-06-02T22:35:57.411Z,14.10
2018-06-02T22:38:25.677Z,15.23
2018-06-02T22:40:54.718Z,16.20
2018-06-02T22:43:23.044Z,14.37
2018-06-02T22:45:51.347Z,14.93
2018-06-02T22:48:19.642Z,13.87
2018-06-02T22:50:47.915Z,14.90
2018-06-02T22:53:16.189Z,16.60
2018-06-02T22:55:44.454Z,14.30
2018-06-02T22:58:12.790Z,15.97
2018-06-02T23:00:41.118Z,15.70
2018-06-02T23:03:10.159Z,17.17
2018-06-02T23:05:38.473Z,16.73
2018-06-02T23:08:06.747Z,16.03
2018-06-02T23:10:35.010Z,17.57
2018-06-02T23:13:03.299Z,20.67
2018-06-02T23:15:31.551Z,16.93
2018-06-02T23:17:59.819Z,18.17
2018-06-02T23:20:28.154Z,20.80
2018-06-02T23:22:57.177Z,22.90
2018-06-02T23:25:25.453Z,22.37
2018-06-02T23:27:54.521Z,22.17
2018-06-02T23:30:22.793Z,26.07
2018-06-02T23:32:51.137Z,27.20
2018-06-02T23:35:20.220Z,28.00
2018-06-02T23:37:48.499Z,26.93
2018-06-02T23:40:16.764Z,25.30
2018-06-02T23:42:46.039Z,25.40
2018-06-02T23:45:15.075Z,26.63
2018-06-02T23:47:43.394Z,24.73
2018-06-02T23:50:11.676Z,26.03
2018-06-02T23:52:39.919Z,26.30
2018-06-02T23:55:09.036Z,27.20
2018-06-02T23:57:38.102Z,26.33
